sensor_id;sensor_type;location;lat;lon;timestamp;P1;durP1;ratioP1;P2;durP2;ratioP2
24483;SDS011;12643;51.620;7.548;2023-11-21T00:00:24;18.42;;;10.52;;
24483;SDS011;12643;51.620;7.548;2023-11-21T00:02:57;17.35;;;11.10;;
24483;SDS011;12643;51.620;7.548;2023-11-21T00:05:26;17.27;;;9.50;;
24483;SDS011;12643;51.620;7.548;2023-11-21T00:07:56;16.13;;;10.07;;
24483;SDS011;12643;51.620;7.548;2023-11-21T00:10:24;14.55;;;8.82;;
24483;SDS011;12643;51.620;7.548;2023-11-21T00:12:54;15.50;;;10.27;;
24483;SDS011;12643;51.620;7.548;2023-11-21T00:15:22;19.77;;;10.57;;
24483;SDS011;12643;51.620;7.548;2023-11-21T00:17:52;14.93;;;9.80;;
24483;SDS011;12643;51.620;7.548;2023-11-21T00:20:21;18.95;;;11.02;;
24483;SDS011;12643;51.620;7.548;2023-11-21T00:22:50;17.27;;;10.20;;
24483;SDS011;12643;51.620;7.548;2023-11-21T00:25:17;19.40;;;10.82;;
24483;SDS011;12643;51.620;7.548;2023-11-21T00:27:46;20.00;;;11.73;;
24483;SDS011;12643;51.620;7.548;2023-11-21T00:30:14;19.55;;;10.45;;
24483;SDS011;12643;51.620;7.548;2023-11-21T00:32:43;17.60;;;11.00;;
24483;SDS011;12643;51.620;7.548;2023-11-21T00:35:12;24.45;;;10.95;;
24483;SDS011;12643;51.620;7.548;2023-11-21T00:37:43;23.95;;;12.07;;
24483;SDS011;12643;51.620;7.548;2023-11-21T00:40:15;16.50;;;10.38;;
24483;SDS011;12643;51.620;7.548;2023-11-21T00:42:45;21.02;;;10.95;;
24483;SDS011;12643;51.620;7.548;2023-11-21T00:45:14;18.40;;;11.18;;
24483;SDS011;12643;51.620;7.548;2023-11-21T00:47:42;23.60;;;12.05;;
24483;SDS011;12643;51.620;7.548;2023-11-21T00:50:11;22.20;;;12.02;;
24483;SDS011;12643;51.620;7.548;2023-11-21T00:52:39;18.77;;;11.70;;
24483;SDS011;12643;51.620;7.548;2023-11-21T00:55:10;22.35;;;11.85;;
24483;SDS011;12643;51.620;7.548;2023-11-21T00:57:38;20.15;;;11.52;;
24483;SDS011;12643;51.620;7.548;2023-11-21T01:00:07;15.45;;;10.15;;
24483;SDS011;12643;51.620;7.548;2023-11-21T01:02:43;26.63;;;11.20;;
24483;SDS011;12643;51.620;7.548;2023-11-21T01:05:11;24.50;;;10.90;;
24483;SDS011;12643;51.620;7.548;2023-11-21T01:07:40;16.23;;;9.88;;
24483;SDS011;12643;51.620;7.548;2023-11-21T01:10:09;20.02;;;9.63;;
24483;SDS011;12643;51.620;7.548;2023-11-21T01:12:39;12.75;;;8.98;;
24483;SDS011;12643;51.620;7.548;2023-11-21T01:15:09;19.27;;;10.65;;
24483;SDS011;12643;51.620;7.548;2023-11-21T01:17:37;16.65;;;10.13;;
24483;SDS011;12643;51.620;7.548;2023-11-21T01:20:06;19.17;;;11.23;;
24483;SDS011;12643;51.620;7.548;2023-11-21T01:22:37;19.08;;;10.25;;
24483;SDS011;12643;51.620;7.548;2023-11-21T01:25:05;16.27;;;10.43;;
24483;SDS011;12643;51.620;7.548;2023-11-21T01:27:36;23.83;;;10.60;;
24483;SDS011;12643;51.620;7.548;2023-11-21T01:30:04;15.05;;;9.15;;
24483;SDS011;12643;51.620;7.548;2023-11-21T01:32:35;18.40;;;9.90;;
24483;SDS011;12643;51.620;7.548;2023-11-21T01:35:04;22.38;;;10.25;;
24483;SDS011;12643;51.620;7.548;2023-11-21T01:37:35;18.42;;;10.70;;
24483;SDS011;12643;51.620;7.548;2023-11-21T01:40:04;22.35;;;10.60;;
24483;SDS011;12643;51.620;7.548;2023-11-21T01:42:40;18.73;;;9.68;;
24483;SDS011;12643;51.620;7.548;2023-11-21T01:45:09;18.65;;;10.50;;
24483;SDS011;12643;51.620;7.548;2023-11-21T01:47:38;17.70;;;9.65;;
24483;SDS011;12643;51.620;7.548;2023-11-21T01:50:08;22.80;;;10.70;;
24483;SDS011;12643;51.620;7.548;2023-11-21T01:55:07;22.55;;;11.52;;
24483;SDS011;12643;51.620;7.548;2023-11-21T01:57:35;17.20;;;10.98;;
24483;SDS011;12643;51.620;7.548;2023-11-21T02:00:06;21.45;;;10.55;;
24483;SDS011;12643;51.620;7.548;2023-11-21T02:02:41;21.60;;;12.43;;
24483;SDS011;12643;51.620;7.548;2023-11-21T02:05:10;20.02;;;10.77;;
24483;SDS011;12643;51.620;7.548;2023-11-21T02:07:40;18.08;;;10.32;;
24483;SDS011;12643;51.620;7.548;2023-11-21T02:10:08;17.23;;;11.38;;
24483;SDS011;12643;51.620;7.548;2023-11-21T02:12:40;16.25;;;10.40;;
24483;SDS011;12643;51.620;7.548;2023-11-21T02:15:11;20.10;;;10.68;;
24483;SDS011;12643;51.620;7.548;2023-11-21T02:17:45;19.50;;;10.45;;
24483;SDS011;12643;51.620;7.548;2023-11-21T02:22:50;24.08;;;10.77;;
24483;SDS011;12643;51.620;7.548;2023-11-21T02:25:21;22.17;;;10.25;;
24483;SDS011;12643;51.620;7.548;2023-11-21T02:28:15;18.15;;;11.13;;
24483;SDS011;12643;51.620;7.548;2023-11-21T02:30:51;22.50;;;12.75;;
24483;SDS011;12643;51.620;7.548;2023-11-21T02:33:24;20.35;;;10.93;;
24483;SDS011;12643;51.620;7.548;2023-11-21T02:35:54;24.23;;;11.75;;
24483;SDS011;12643;51.620;7.548;2023-11-21T02:38:24;22.98;;;12.48;;
24483;SDS011;12643;51.620;7.548;2023-11-21T02:40:56;21.98;;;11.35;;
24483;SDS011;12643;51.620;7.548;2023-11-21T02:43:25;21.83;;;11.77;;
24483;SDS011;12643;51.620;7.548;2023-11-21T02:45:53;24.38;;;12.00;;
24483;SDS011;12643;51.620;7.548;2023-11-21T02:48:21;19.50;;;12.25;;
24483;SDS011;12643;51.620;7.548;2023-11-21T02:50:51;22.25;;;11.27;;
24483;SDS011;12643;51.620;7.548;2023-11-21T02:53:19;24.95;;;12.18;;
24483;SDS011;12643;51.620;7.548;2023-11-21T02:55:51;23.83;;;12.70;;
24483;SDS011;12643;51.620;7.548;2023-11-21T02:58:21;20.08;;;11.85;;
24483;SDS011;12643;51.620;7.548;2023-11-21T03:00:49;28.58;;;13.27;;
24483;SDS011;12643;51.620;7.548;2023-11-21T03:03:17;23.00;;;14.52;;
24483;SDS011;12643;51.620;7.548;2023-11-21T03:05:46;24.90;;;13.40;;
24483;SDS011;12643;51.620;7.548;2023-11-21T03:08:14;26.60;;;13.90;;
24483;SDS011;12643;51.620;7.548;2023-11-21T03:10:42;26.27;;;13.38;;
24483;SDS011;12643;51.620;7.548;2023-11-21T03:13:13;27.42;;;14.32;;
24483;SDS011;12643;51.620;7.548;2023-11-21T03:15:42;20.17;;;13.35;;
24483;SDS011;12643;51.620;7.548;2023-11-21T03:18:10;26.15;;;13.35;;
24483;SDS011;12643;51.620;7.548;2023-11-21T03:20:38;22.73;;;13.90;;
24483;SDS011;12643;51.620;7.548;2023-11-21T03:23:08;26.50;;;13.10;;
24483;SDS011;12643;51.620;7.548;2023-11-21T03:25:36;23.52;;;14.48;;
24483;SDS011;12643;51.620;7.548;2023-11-21T03:28:05;24.85;;;13.30;;
24483;SDS011;12643;51.620;7.548;2023-11-21T03:30:36;21.70;;;12.70;;
24483;SDS011;12643;51.620;7.548;2023-11-21T03:33:04;25.17;;;13.98;;
24483;SDS011;12643;51.620;7.548;2023-11-21T03:35:33;28.02;;;14.02;;
24483;SDS011;12643;51.620;7.548;2023-11-21T03:38:02;29.52;;;15.77;;
24483;SDS011;12643;51.620;7.548;2023-11-21T03:40:30;27.65;;;15.57;;
24483;SDS011;12643;51.620;7.548;2023-11-21T03:42:58;30.63;;;15.93;;
24483;SDS011;12643;51.620;7.548;2023-11-21T03:45:27;33.00;;;16.65;;
24483;SDS011;12643;51.620;7.548;2023-11-21T03:47:56;31.52;;;18.40;;
24483;SDS011;12643;51.620;7.548;2023-11-21T03:50:26;33.60;;;19.88;;
24483;SDS011;12643;51.620;7.548;2023-11-21T03:52:54;34.08;;;18.65;;
24483;SDS011;12643;51.620;7.548;2023-11-21T03:55:22;30.50;;;15.48;;
24483;SDS011;12643;51.620;7.548;2023-11-21T03:57:53;24.40;;;14.35;;
24483;SDS011;12643;51.620;7.548;2023-11-21T04:00:23;23.75;;;13.55;;
24483;SDS011;12643;51.620;7.548;2023-11-21T04:02:52;26.55;;;15.45;;
24483;SDS011;12643;51.620;7.548;2023-11-21T04:05:22;19.90;;;12.85;;
24483;SDS011;12643;51.620;7.548;2023-11-21T04:07:51;23.23;;;12.80;;
24483;SDS011;12643;51.620;7.548;2023-11-21T04:10:20;20.88;;;13.13;;
24483;SDS011;12643;51.620;7.548;2023-11-21T04:12:48;26.30;;;12.85;;
24483;SDS011;12643;51.620;7.548;2023-11-21T04:15:16;23.75;;;12.73;;
24483;SDS011;12643;51.620;7.548;2023-11-21T04:17:45;21.77;;;12.65;;
24483;SDS011;12643;51.620;7.548;2023-11-21T04:20:13;20.77;;;12.30;;
24483;SDS011;12643;51.620;7.548;2023-11-21T04:22:43;23.33;;;13.18;;
24483;SDS011;12643;51.620;7.548;2023-11-21T04:25:13;16.00;;;11.45;;
24483;SDS011;12643;51.620;7.548;2023-11-21T04:27:42;21.05;;;11.38;;
24483;SDS011;12643;51.620;7.548;2023-11-21T04:30:13;18.75;;;11.27;;
24483;SDS011;12643;51.620;7.548;2023-11-21T04:32:42;24.60;;;11.65;;
24483;SDS011;12643;51.620;7.548;2023-11-21T04:35:10;17.20;;;11.88;;
24483;SDS011;12643;51.620;7.548;2023-11-21T04:37:38;18.58;;;11.38;;
24483;SDS011;12643;51.620;7.548;2023-11-21T04:40:10;19.15;;;12.00;;
24483;SDS011;12643;51.620;7.548;2023-11-21T04:42:38;21.83;;;11.65;;
24483;SDS011;12643;51.620;7.548;2023-11-21T04:45:07;24.23;;;12.52;;
24483;SDS011;12643;51.620;7.548;2023-11-21T04:47:37;21.65;;;11.90;;
24483;SDS011;12643;51.620;7.548;2023-11-21T04:50:07;18.17;;;11.40;;
24483;SDS011;12643;51.620;7.548;2023-11-21T04:52:35;19.65;;;11.68;;
24483;SDS011;12643;51.620;7.548;2023-11-21T04:55:06;20.52;;;11.52;;
24483;SDS011;12643;51.620;7.548;2023-11-21T04:57:36;14.02;;;10.80;;
24483;SDS011;12643;51.620;7.548;2023-11-21T05:00:05;15.10;;;9.80;;
24483;SDS011;12643;51.620;7.548;2023-11-21T05:02:35;16.55;;;9.73;;
24483;SDS011;12643;51.620;7.548;2023-11-21T05:05:04;18.80;;;10.45;;
24483;SDS011;12643;51.620;7.548;2023-11-21T05:07:39;18.55;;;10.32;;
24483;SDS011;12643;51.620;7.548;2023-11-21T05:10:10;19.63;;;11.07;;
24483;SDS011;12643;51.620;7.548;2023-11-21T05:12:41;16.65;;;10.52;;
24483;SDS011;12643;51.620;7.548;2023-11-21T05:15:09;18.42;;;10.98;;
24483;SDS011;12643;51.620;7.548;2023-11-21T05:17:41;14.45;;;9.80;;
24483;SDS011;12643;51.620;7.548;2023-11-21T05:20:09;22.15;;;11.38;;
24483;SDS011;12643;51.620;7.548;2023-11-21T05:22:39;19.17;;;11.40;;
24483;SDS011;12643;51.620;7.548;2023-11-21T05:25:08;20.45;;;11.18;;
24483;SDS011;12643;51.620;7.548;2023-11-21T05:27:43;18.60;;;10.93;;
24483;SDS011;12643;51.620;7.548;2023-11-21T05:30:13;22.65;;;11.75;;
24483;SDS011;12643;51.620;7.548;2023-11-21T05:32:41;24.02;;;12.15;;
24483;SDS011;12643;51.620;7.548;2023-11-21T05:35:10;18.58;;;11.15;;
24483;SDS011;12643;51.620;7.548;2023-11-21T05:37:41;20.30;;;11.40;;
24483;SDS011;12643;51.620;7.548;2023-11-21T05:40:12;19.27;;;11.68;;
24483;SDS011;12643;51.620;7.548;2023-11-21T05:42:40;19.48;;;11.02;;
24483;SDS011;12643;51.620;7.548;2023-11-21T05:45:10;19.58;;;11.00;;
24483;SDS011;12643;51.620;7.548;2023-11-21T05:47:39;20.10;;;11.40;;
24483;SDS011;12643;51.620;7.548;2023-11-21T05:50:08;20.30;;;11.43;;
24483;SDS011;12643;51.620;7.548;2023-11-21T05:52:41;17.85;;;10.90;;
24483;SDS011;12643;51.620;7.548;2023-11-21T05:55:11;20.98;;;11.85;;
24483;SDS011;12643;51.620;7.548;2023-11-21T05:57:40;21.05;;;12.10;;
24483;SDS011;12643;51.620;7.548;2023-11-21T06:00:10;19.65;;;11.20;;
24483;SDS011;12643;51.620;7.548;2023-11-21T06:02:44;22.77;;;12.05;;
24483;SDS011;12643;51.620;7.548;2023-11-21T06:05:12;22.05;;;12.02;;
24483;SDS011;12643;51.620;7.548;2023-11-21T06:07:41;20.33;;;12.23;;
24483;SDS011;12643;51.620;7.548;2023-11-21T06:10:11;20.65;;;11.40;;
24483;SDS011;12643;51.620;7.548;2023-11-21T06:12:39;22.48;;;12.80;;
24483;SDS011;12643;51.620;7.548;2023-11-21T06:15:09;21.40;;;12.00;;
24483;SDS011;12643;51.620;7.548;2023-11-21T06:17:39;19.27;;;12.27;;
24483;SDS011;12643;51.620;7.548;2023-11-21T06:20:08;20.20;;;12.05;;
24483;SDS011;12643;51.620;7.548;2023-11-21T06:22:40;20.50;;;11.90;;
24483;SDS011;12643;51.620;7.548;2023-11-21T06:25:11;22.55;;;12.43;;
24483;SDS011;12643;51.620;7.548;2023-11-21T06:27:42;18.92;;;12.15;;
24483;SDS011;12643;51.620;7.548;2023-11-21T06:30:14;20.73;;;11.63;;
24483;SDS011;12643;51.620;7.548;2023-11-21T06:32:44;22.15;;;12.32;;
24483;SDS011;12643;51.620;7.548;2023-11-21T06:35:16;22.33;;;13.88;;
24483;SDS011;12643;51.620;7.548;2023-11-21T06:37:45;17.67;;;12.70;;
24483;SDS011;12643;51.620;7.548;2023-11-21T06:40:19;18.38;;;12.05;;
24483;SDS011;12643;51.620;7.548;2023-11-21T06:42:52;23.45;;;12.95;;
24483;SDS011;12643;51.620;7.548;2023-11-21T06:45:21;17.75;;;12.90;;
24483;SDS011;12643;51.620;7.548;2023-11-21T06:47:49;18.00;;;12.27;;
24483;SDS011;12643;51.620;7.548;2023-11-21T06:50:18;18.00;;;12.18;;
24483;SDS011;12643;51.620;7.548;2023-11-21T06:52:46;24.65;;;14.43;;
24483;SDS011;12643;51.620;7.548;2023-11-21T06:55:15;21.17;;;14.05;;
24483;SDS011;12643;51.620;7.548;2023-11-21T06:57:46;21.40;;;13.25;;
24483;SDS011;12643;51.620;7.548;2023-11-21T07:00:15;23.50;;;13.60;;
24483;SDS011;12643;51.620;7.548;2023-11-21T07:02:44;22.15;;;13.40;;
24483;SDS011;12643;51.620;7.548;2023-11-21T07:05:13;21.92;;;14.85;;
24483;SDS011;12643;51.620;7.548;2023-11-21T07:07:41;24.83;;;15.50;;
24483;SDS011;12643;51.620;7.548;2023-11-21T07:10:09;26.77;;;14.75;;
24483;SDS011;12643;51.620;7.548;2023-11-21T07:12:38;26.80;;;15.27;;
24483;SDS011;12643;51.620;7.548;2023-11-21T07:15:09;22.55;;;14.05;;
24483;SDS011;12643;51.620;7.548;2023-11-21T07:20:07;25.67;;;14.35;;
24483;SDS011;12643;51.620;7.548;2023-11-21T07:22:36;29.77;;;16.33;;
24483;SDS011;12643;51.620;7.548;2023-11-21T07:25:05;28.88;;;15.80;;
24483;SDS011;12643;51.620;7.548;2023-11-21T07:27:36;31.13;;;15.02;;
24483;SDS011;12643;51.620;7.548;2023-11-21T07:30:12;26.38;;;15.70;;
24483;SDS011;12643;51.620;7.548;2023-11-21T07:32:41;22.13;;;14.45;;
24483;SDS011;12643;51.620;7.548;2023-11-21T07:35:13;29.60;;;16.55;;
24483;SDS011;12643;51.620;7.548;2023-11-21T07:37:42;33.97;;;16.70;;
24483;SDS011;12643;51.620;7.548;2023-11-21T07:40:14;26.45;;;15.50;;
24483;SDS011;12643;51.620;7.548;2023-11-21T07:42:42;26.65;;;16.17;;
24483;SDS011;12643;51.620;7.548;2023-11-21T07:45:13;26.30;;;15.32;;
24483;SDS011;12643;51.620;7.548;2023-11-21T07:47:41;23.30;;;15.18;;
24483;SDS011;12643;51.620;7.548;2023-11-21T07:50:10;23.02;;;14.90;;
24483;SDS011;12643;51.620;7.548;2023-11-21T07:52:39;26.25;;;15.82;;
24483;SDS011;12643;51.620;7.548;2023-11-21T07:55:07;23.45;;;14.75;;
24483;SDS011;12643;51.620;7.548;2023-11-21T07:57:36;27.98;;;15.27;;
24483;SDS011;12643;51.620;7.548;2023-11-21T08:00:04;28.00;;;14.50;;
24483;SDS011;12643;51.620;7.548;2023-11-21T08:02:37;25.83;;;14.20;;
24483;SDS011;12643;51.620;7.548;2023-11-21T08:05:07;29.50;;;16.27;;
24483;SDS011;12643;51.620;7.548;2023-11-21T08:07:36;27.77;;;16.35;;
24483;SDS011;12643;51.620;7.548;2023-11-21T08:10:06;24.88;;;14.70;;
24483;SDS011;12643;51.620;7.548;2023-11-21T08:12:36;24.40;;;15.17;;
24483;SDS011;12643;51.620;7.548;2023-11-21T08:15:09;31.50;;;17.10;;
24483;SDS011;12643;51.620;7.548;2023-11-21T08:17:39;30.95;;;16.52;;
24483;SDS011;12643;51.620;7.548;2023-11-21T08:20:08;30.15;;;14.70;;
24483;SDS011;12643;51.620;7.548;2023-11-21T08:22:38;22.73;;;14.50;;
24483;SDS011;12643;51.620;7.548;2023-11-21T08:25:07;25.80;;;14.70;;
24483;SDS011;12643;51.620;7.548;2023-11-21T08:27:38;25.80;;;15.25;;
24483;SDS011;12643;51.620;7.548;2023-11-21T08:30:08;29.40;;;17.23;;
24483;SDS011;12643;51.620;7.548;2023-11-21T08:32:39;29.33;;;17.05;;
24483;SDS011;12643;51.620;7.548;2023-11-21T08:35:11;30.70;;;16.40;;
24483;SDS011;12643;51.620;7.548;2023-11-21T08:37:41;27.42;;;17.67;;
24483;SDS011;12643;51.620;7.548;2023-11-21T08:40:10;36.85;;;20.40;;
24483;SDS011;12643;51.620;7.548;2023-11-21T08:42:43;43.22;;;22.05;;
24483;SDS011;12643;51.620;7.548;2023-11-21T08:45:13;50.70;;;24.88;;
24483;SDS011;12643;51.620;7.548;2023-11-21T08:47:47;64.05;;;26.95;;
24483;SDS011;12643;51.620;7.548;2023-11-21T08:50:22;62.20;;;27.80;;
24483;SDS011;12643;51.620;7.548;2023-11-21T08:52:53;65.53;;;28.90;;
24483;SDS011;12643;51.620;7.548;2023-11-21T08:55:24;63.03;;;29.25;;
24483;SDS011;12643;51.620;7.548;2023-11-21T08:57:55;59.60;;;28.20;;
24483;SDS011;12643;51.620;7.548;2023-11-21T09:00:27;59.05;;;27.85;;
24483;SDS011;12643;51.620;7.548;2023-11-21T09:02:58;64.93;;;29.73;;
24483;SDS011;12643;51.620;7.548;2023-11-21T09:05:28;60.80;;;28.48;;
24483;SDS011;12643;51.620;7.548;2023-11-21T09:07:56;75.82;;;32.80;;
24483;SDS011;12643;51.620;7.548;2023-11-21T09:10:24;73.60;;;33.22;;
24483;SDS011;12643;51.620;7.548;2023-11-21T09:12:55;75.72;;;31.20;;
24483;SDS011;12643;51.620;7.548;2023-11-21T09:15:25;76.35;;;31.48;;
24483;SDS011;12643;51.620;7.548;2023-11-21T09:17:53;79.80;;;32.92;;
24483;SDS011;12643;51.620;7.548;2023-11-21T09:20:23;70.40;;;31.80;;
24483;SDS011;12643;51.620;7.548;2023-11-21T09:22:52;74.28;;;31.35;;
24483;SDS011;12643;51.620;7.548;2023-11-21T09:25:21;74.30;;;31.92;;
24483;SDS011;12643;51.620;7.548;2023-11-21T09:27:52;74.07;;;31.15;;
24483;SDS011;12643;51.620;7.548;2023-11-21T09:30:25;71.85;;;30.95;;
24483;SDS011;12643;51.620;7.548;2023-11-21T09:32:53;71.03;;;32.30;;
24483;SDS011;12643;51.620;7.548;2023-11-21T09:35:24;72.25;;;32.00;;
24483;SDS011;12643;51.620;7.548;2023-11-21T09:37:54;69.47;;;32.63;;
24483;SDS011;12643;51.620;7.548;2023-11-21T09:40:22;78.72;;;32.92;;
24483;SDS011;12643;51.620;7.548;2023-11-21T09:42:54;76.55;;;34.28;;
24483;SDS011;12643;51.620;7.548;2023-11-21T09:45:27;75.10;;;32.72;;
24483;SDS011;12643;51.620;7.548;2023-11-21T09:47:58;72.55;;;33.25;;
24483;SDS011;12643;51.620;7.548;2023-11-21T09:50:28;83.97;;;35.45;;
24483;SDS011;12643;51.620;7.548;2023-11-21T09:53:02;87.13;;;36.33;;
24483;SDS011;12643;51.620;7.548;2023-11-21T09:55:41;82.50;;;34.50;;
24483;SDS011;12643;51.620;7.548;2023-11-21T09:58:14;80.45;;;34.72;;
24483;SDS011;12643;51.620;7.548;2023-11-21T10:00:43;70.05;;;31.50;;
24483;SDS011;12643;51.620;7.548;2023-11-21T10:03:12;74.97;;;33.90;;
24483;SDS011;12643;51.620;7.548;2023-11-21T10:05:45;78.07;;;34.88;;
24483;SDS011;12643;51.620;7.548;2023-11-21T10:08:15;75.18;;;33.75;;
24483;SDS011;12643;51.620;7.548;2023-11-21T10:10:45;80.63;;;35.40;;
24483;SDS011;12643;51.620;7.548;2023-11-21T10:13:15;81.80;;;34.38;;
24483;SDS011;12643;51.620;7.548;2023-11-21T10:15:48;74.63;;;32.85;;
24483;SDS011;12643;51.620;7.548;2023-11-21T10:18:19;81.55;;;32.58;;
24483;SDS011;12643;51.620;7.548;2023-11-21T10:20:50;73.67;;;31.97;;
24483;SDS011;12643;51.620;7.548;2023-11-21T10:23:19;76.15;;;30.65;;
24483;SDS011;12643;51.620;7.548;2023-11-21T10:25:48;68.65;;;31.25;;
24483;SDS011;12643;51.620;7.548;2023-11-21T10:28:18;81.97;;;32.38;;
24483;SDS011;12643;51.620;7.548;2023-11-21T10:30:51;79.05;;;32.30;;
24483;SDS011;12643;51.620;7.548;2023-11-21T10:33:21;78.93;;;34.15;;
24483;SDS011;12643;51.620;7.548;2023-11-21T10:35:59;78.15;;;33.75;;
24483;SDS011;12643;51.620;7.548;2023-11-21T10:38:33;73.85;;;31.88;;
24483;SDS011;12643;51.620;7.548;2023-11-21T10:41:10;77.63;;;31.95;;
24483;SDS011;12643;51.620;7.548;2023-11-21T10:43:44;80.05;;;33.67;;
24483;SDS011;12643;51.620;7.548;2023-11-21T10:46:13;73.85;;;31.23;;
24483;SDS011;12643;51.620;7.548;2023-11-21T10:51:13;69.13;;;30.17;;
24483;SDS011;12643;51.620;7.548;2023-11-21T10:53:42;69.05;;;30.73;;
24483;SDS011;12643;51.620;7.548;2023-11-21T10:56:13;68.65;;;28.83;;
24483;SDS011;12643;51.620;7.548;2023-11-21T10:58:46;56.15;;;26.05;;
24483;SDS011;12643;51.620;7.548;2023-11-21T11:01:19;63.10;;;26.30;;
24483;SDS011;12643;51.620;7.548;2023-11-21T11:03:49;57.47;;;27.58;;
24483;SDS011;12643;51.620;7.548;2023-11-21T11:06:21;51.92;;;24.75;;
24483;SDS011;12643;51.620;7.548;2023-11-21T11:08:58;56.65;;;24.38;;
24483;SDS011;12643;51.620;7.548;2023-11-21T11:11:28;51.13;;;25.83;;
24483;SDS011;12643;51.620;7.548;2023-11-21T11:13:57;46.05;;;22.65;;
24483;SDS011;12643;51.620;7.548;2023-11-21T11:16:32;47.05;;;22.80;;
24483;SDS011;12643;51.620;7.548;2023-11-21T11:19:01;48.20;;;22.83;;
24483;SDS011;12643;51.620;7.548;2023-11-21T11:21:34;51.35;;;23.67;;
24483;SDS011;12643;51.620;7.548;2023-11-21T11:24:15;47.00;;;22.27;;
24483;SDS011;12643;51.620;7.548;2023-11-21T11:26:58;40.60;;;21.20;;
24483;SDS011;12643;51.620;7.548;2023-11-21T11:29:35;39.15;;;19.95;;
24483;SDS011;12643;51.620;7.548;2023-11-21T11:32:11;38.10;;;19.48;;
24483;SDS011;12643;51.620;7.548;2023-11-21T11:34:50;36.83;;;18.30;;
24483;SDS011;12643;51.620;7.548;2023-11-21T11:37:24;28.92;;;17.23;;
24483;SDS011;12643;51.620;7.548;2023-11-21T11:39:53;32.80;;;17.65;;
24483;SDS011;12643;51.620;7.548;2023-11-21T11:42:23;29.85;;;17.33;;
24483;SDS011;12643;51.620;7.548;2023-11-21T11:44:56;28.65;;;16.33;;
24483;SDS011;12643;51.620;7.548;2023-11-21T11:47:24;36.80;;;16.58;;
24483;SDS011;12643;51.620;7.548;2023-11-21T11:50:00;26.48;;;15.25;;
24483;SDS011;12643;51.620;7.548;2023-11-21T11:52:45;27.33;;;15.25;;
24483;SDS011;12643;51.620;7.548;2023-11-21T11:55:16;24.45;;;15.10;;
24483;SDS011;12643;51.620;7.548;2023-11-21T11:57:47;29.30;;;16.10;;
24483;SDS011;12643;51.620;7.548;2023-11-21T12:00:18;35.17;;;16.55;;
24483;SDS011;12643;51.620;7.548;2023-11-21T12:03:03;28.95;;;16.55;;
24483;SDS011;12643;51.620;7.548;2023-11-21T12:05:34;33.80;;;16.17;;
24483;SDS011;12643;51.620;7.548;2023-11-21T12:08:06;29.98;;;18.05;;
24483;SDS011;12643;51.620;7.548;2023-11-21T12:10:35;28.13;;;16.60;;
24483;SDS011;12643;51.620;7.548;2023-11-21T12:13:06;31.48;;;17.35;;
24483;SDS011;12643;51.620;7.548;2023-11-21T12:15:36;36.40;;;20.50;;
24483;SDS011;12643;51.620;7.548;2023-11-21T12:18:05;29.98;;;16.25;;
24483;SDS011;12643;51.620;7.548;2023-11-21T12:20:34;30.40;;;16.60;;
24483;SDS011;12643;51.620;7.548;2023-11-21T12:23:11;31.70;;;17.05;;
24483;SDS011;12643;51.620;7.548;2023-11-21T12:25:42;28.20;;;15.13;;
24483;SDS011;12643;51.620;7.548;2023-11-21T12:28:14;30.90;;;15.35;;
24483;SDS011;12643;51.620;7.548;2023-11-21T12:30:44;28.00;;;16.35;;
24483;SDS011;12643;51.620;7.548;2023-11-21T12:33:19;28.33;;;16.17;;
24483;SDS011;12643;51.620;7.548;2023-11-21T12:36:03;26.05;;;14.15;;
24483;SDS011;12643;51.620;7.548;2023-11-21T12:38:38;26.73;;;14.20;;
24483;SDS011;12643;51.620;7.548;2023-11-21T12:41:07;25.30;;;15.35;;
24483;SDS011;12643;51.620;7.548;2023-11-21T12:43:37;28.48;;;14.77;;
24483;SDS011;12643;51.620;7.548;2023-11-21T12:46:05;26.88;;;13.98;;
24483;SDS011;12643;51.620;7.548;2023-11-21T12:48:37;26.25;;;15.50;;
24483;SDS011;12643;51.620;7.548;2023-11-21T12:51:08;29.33;;;14.57;;
24483;SDS011;12643;51.620;7.548;2023-11-21T12:53:42;26.95;;;13.40;;
24483;SDS011;12643;51.620;7.548;2023-11-21T12:56:21;24.67;;;14.70;;
24483;SDS011;12643;51.620;7.548;2023-11-21T12:58:53;26.20;;;14.85;;
24483;SDS011;12643;51.620;7.548;2023-11-21T13:01:27;24.20;;;14.30;;
24483;SDS011;12643;51.620;7.548;2023-11-21T13:03:58;26.55;;;15.23;;
24483;SDS011;12643;51.620;7.548;2023-11-21T13:06:28;23.98;;;13.77;;
24483;SDS011;12643;51.620;7.548;2023-11-21T13:09:07;21.65;;;12.43;;
24483;SDS011;12643;51.620;7.548;2023-11-21T13:14:19;19.95;;;11.73;;
24483;SDS011;12643;51.620;7.548;2023-11-21T13:17:00;22.60;;;12.65;;
24483;SDS011;12643;51.620;7.548;2023-11-21T13:19:30;19.55;;;12.35;;
24483;SDS011;12643;51.620;7.548;2023-11-21T13:21:59;22.50;;;12.93;;
24483;SDS011;12643;51.620;7.548;2023-11-21T13:24:41;26.23;;;14.00;;
24483;SDS011;12643;51.620;7.548;2023-11-21T13:27:09;22.80;;;12.65;;
24483;SDS011;12643;51.620;7.548;2023-11-21T13:29:41;21.80;;;11.68;;
24483;SDS011;12643;51.620;7.548;2023-11-21T13:32:10;19.98;;;11.30;;
24483;SDS011;12643;51.620;7.548;2023-11-21T13:34:38;23.17;;;12.40;;
24483;SDS011;12643;51.620;7.548;2023-11-21T13:37:10;20.10;;;11.50;;
24483;SDS011;12643;51.620;7.548;2023-11-21T13:39:38;18.38;;;11.40;;
24483;SDS011;12643;51.620;7.548;2023-11-21T13:42:11;18.58;;;11.18;;
24483;SDS011;12643;51.620;7.548;2023-11-21T13:44:42;21.92;;;11.23;;
24483;SDS011;12643;51.620;7.548;2023-11-21T13:47:13;19.35;;;10.75;;
24483;SDS011;12643;51.620;7.548;2023-11-21T13:49:42;17.35;;;9.45;;
24483;SDS011;12643;51.620;7.548;2023-11-21T13:52:18;15.68;;;9.73;;
24483;SDS011;12643;51.620;7.548;2023-11-21T13:54:53;14.18;;;8.95;;
24483;SDS011;12643;51.620;7.548;2023-11-21T13:57:28;13.40;;;8.43;;
24483;SDS011;12643;51.620;7.548;2023-11-21T13:59:55;12.80;;;8.48;;
24483;SDS011;12643;51.620;7.548;2023-11-21T14:02:25;13.10;;;8.57;;
24483;SDS011;12643;51.620;7.548;2023-11-21T14:05:00;12.85;;;8.55;;
24483;SDS011;12643;51.620;7.548;2023-11-21T14:07:35;14.27;;;9.10;;
24483;SDS011;12643;51.620;7.548;2023-11-21T14:10:15;12.05;;;8.23;;
24483;SDS011;12643;51.620;7.548;2023-11-21T14:12:48;14.68;;;9.00;;
24483;SDS011;12643;51.620;7.548;2023-11-21T14:15:18;15.85;;;10.00;;
24483;SDS011;12643;51.620;7.548;2023-11-21T14:17:47;17.35;;;9.93;;
24483;SDS011;12643;51.620;7.548;2023-11-21T14:20:17;13.32;;;10.07;;
24483;SDS011;12643;51.620;7.548;2023-11-21T14:22:46;12.77;;;9.57;;
24483;SDS011;12643;51.620;7.548;2023-11-21T14:25:18;10.48;;;8.60;;
24483;SDS011;12643;51.620;7.548;2023-11-21T14:27:48;12.68;;;9.05;;
24483;SDS011;12643;51.620;7.548;2023-11-21T14:30:18;9.57;;;8.00;;
24483;SDS011;12643;51.620;7.548;2023-11-21T14:32:48;9.60;;;7.88;;
24483;SDS011;12643;51.620;7.548;2023-11-21T14:35:20;8.48;;;6.72;;
24483;SDS011;12643;51.620;7.548;2023-11-21T14:37:52;11.07;;;7.43;;
24483;SDS011;12643;51.620;7.548;2023-11-21T14:40:25;10.20;;;7.40;;
24483;SDS011;12643;51.620;7.548;2023-11-21T14:42:59;9.68;;;7.35;;
24483;SDS011;12643;51.620;7.548;2023-11-21T14:45:32;8.98;;;7.55;;
24483;SDS011;12643;51.620;7.548;2023-11-21T14:48:02;10.90;;;8.13;;
24483;SDS011;12643;51.620;7.548;2023-11-21T14:50:37;14.18;;;9.63;;
24483;SDS011;12643;51.620;7.548;2023-11-21T14:53:12;19.98;;;11.73;;
24483;SDS011;12643;51.620;7.548;2023-11-21T14:55:44;20.75;;;13.40;;